createdAt,value
2019-05-21T00:00:11.318Z,82.93
2019-05-21T00:02:39.765Z,82.03
2019-05-21T00:05:08.248Z,90.13
2019-05-21T00:07:36.693Z,81.10
2019-05-21T00:10:06.447Z,88.47
2019-05-21T00:12:34.965Z,84.40
2019-05-21T00:15:03.441Z,87.07
2019-05-21T00:17:31.888Z,84.27
2019-05-21T00:20:00.370Z,86.80
2019-05-21T00:22:28.813Z,92.17
2019-05-21T00:24:57.262Z,86.67
2019-05-21T00:27:25.686Z,94.63
2019-05-21T00:30:30.375Z,83.90
2019-05-21T00:33:35.131Z,89.20
2019-05-21T00:36:41.348Z,87.43
2019-05-21T00:39:46.363Z,86.37
2019-05-21T00:42:17.975Z,92.60
2019-05-21T00:44:46.397Z,92.80
2019-05-21T00:47:14.835Z,91.27
2019-05-21T00:49:43.428Z,88.17
2019-05-21T00:52:11.862Z,93.60
2019-05-21T00:54:40.277Z,97.13
2019-05-21T00:57:08.718Z,91.03
2019-05-21T00:59:37.129Z,90.20
2019-05-21T01:02:13.584Z,90.47
2019-05-21T01:04:42.000Z,96.23
2019-05-21T01:07:10.437Z,93.67
2019-05-21T01:09:38.918Z,96.77
2019-05-21T01:12:07.344Z,102.03
2019-05-21T01:14:35.789Z,97.27
2019-05-21T01:17:04.208Z,97.67
2019-05-21T01:19:32.656Z,100.20
2019-05-21T01:22:01.074Z,93.60
2019-05-21T01:24:29.514Z,94.13
2019-05-21T01:26:57.932Z,90.37
2019-05-21T01:29:26.362Z,98.70
2019-05-21T01:31:54.776Z,95.23
2019-05-21T01:34:23.227Z,102.00
2019-05-21T01:36:52.253Z,99.17
2019-05-21T01:39:20.784Z,93.90
2019-05-21T01:41:49.191Z,98.20
2019-05-21T01:44:17.710Z,99.43
2019-05-21T01:46:46.137Z,90.50
2019-05-21T01:49:14.589Z,87.43
2019-05-21T01:51:43.001Z,94.70
2019-05-21T01:54:11.432Z,93.93
2019-05-21T01:56:39.853Z,91.93
2019-05-21T01:59:08.299Z,96.87
2019-05-21T02:01:36.714Z,88.40
2019-05-21T02:04:05.157Z,88.40
2019-05-21T02:06:33.651Z,88.43
2019-05-21T02:09:02.088Z,92.57
2019-05-21T02:11:30.499Z,96.03
2019-05-21T02:13:58.942Z,89.10
2019-05-21T02:16:27.345Z,90.27
2019-05-21T02:18:55.804Z,91.70
2019-05-21T02:21:24.215Z,96.70
2019-05-21T02:23:52.631Z,97.50
2019-05-21T02:26:21.073Z,89.80
2019-05-21T02:28:49.534Z,84.50
2019-05-21T02:31:17.995Z,90.97
2019-05-21T02:33:46.405Z,89.40
2019-05-21T02:36:14.847Z,91.43
2019-05-21T02:38:43.259Z,91.07
2019-05-21T02:41:11.712Z,94.37
2019-05-21T02:43:40.214Z,91.67
2019-05-21T02:46:08.679Z,92.80
2019-05-21T02:48:37.069Z,96.00
2019-05-21T02:51:05.562Z,92.20
2019-05-21T02:53:34.686Z,104.90
2019-05-21T02:56:03.309Z,95.97
2019-05-21T02:58:31.704Z,93.87
2019-05-21T03:01:18.101Z,104.97
2019-05-21T03:03:46.548Z,100.87
2019-05-21T03:06:15.222Z,98.53
2019-05-21T03:08:43.861Z,100.00
2019-05-21T03:11:12.297Z,103.07
2019-05-21T03:13:40.718Z,95.77
2019-05-21T03:16:09.162Z,99.67
2019-05-21T03:18:37.576Z,106.67
2019-05-21T03:21:06.016Z,102.97
2019-05-21T03:23:34.427Z,102.83
2019-05-21T03:26:02.869Z,100.20
2019-05-21T03:28:31.283Z,97.27
2019-05-21T03:30:59.740Z,102.53
2019-05-21T03:33:28.159Z,102.17
2019-05-21T03:35:56.567Z,109.53
2019-05-21T03:38:25.087Z,105.50
2019-05-21T03:40:53.500Z,98.70
2019-05-21T03:43:22.025Z,100.70
2019-05-21T03:45:50.434Z,101.30
2019-05-21T03:48:18.886Z,103.87
2019-05-21T03:50:47.450Z,106.43
2019-05-21T03:53:15.896Z,99.83
2019-05-21T03:55:44.314Z,103.03
2019-05-21T03:58:12.757Z,98.77
2019-05-21T04:00:41.174Z,104.87
2019-05-21T04:03:09.616Z,111.53
2019-05-21T04:05:38.031Z,105.13
2019-05-21T04:08:06.479Z,111.83
2019-05-21T04:10:34.896Z,111.60
2019-05-21T04:13:06.898Z,106.63
2019-05-21T04:15:47.492Z,116.27
2019-05-21T04:18:20.350Z,103.23
2019-05-21T04:20:48.773Z,109.20
2019-05-21T04:23:17.213Z,104.70
2019-05-21T04:25:45.633Z,110.00
2019-05-21T04:28:14.164Z,103.57
2019-05-21T04:30:42.568Z,119.50
2019-05-21T04:33:11.005Z,110.37
2019-05-21T04:35:39.429Z,114.30
2019-05-21T04:38:07.850Z,121.13
2019-05-21T04:40:36.293Z,121.23
2019-05-21T04:43:04.742Z,117.00
2019-05-21T04:45:33.230Z,121.93
2019-05-21T04:48:01.653Z,113.37
2019-05-21T04:50:30.091Z,123.33
2019-05-21T04:52:58.512Z,109.73
2019-05-21T04:55:26.950Z,111.47
2019-05-21T04:57:55.372Z,108.20
2019-05-21T05:00:23.822Z,120.43
2019-05-21T05:02:52.227Z,111.37
2019-05-21T05:05:20.738Z,124.70
2019-05-21T05:07:49.153Z,125.83
2019-05-21T05:10:17.684Z,118.10
2019-05-21T05:12:46.096Z,117.73
2019-05-21T05:15:14.608Z,118.33
2019-05-21T05:17:43.073Z,111.53
2019-05-21T05:20:12.406Z,120.37
2019-05-21T05:22:40.823Z,125.80
2019-05-21T05:25:09.406Z,127.07
2019-05-21T05:27:37.885Z,125.20
2019-05-21T05:30:08.210Z,132.03
2019-05-21T05:32:36.617Z,118.37
2019-05-21T05:35:07.957Z,122.60
2019-05-21T05:37:44.203Z,124.03
2019-05-21T05:40:07.711Z,122.90
2019-05-21T05:42:36.176Z,120.43
2019-05-21T05:45:07.500Z,117.40
2019-05-21T05:47:36.125Z,119.77
2019-05-21T05:50:07.518Z,118.13
2019-05-21T05:52:35.965Z,126.73
2019-05-21T05:55:06.324Z,123.90
2019-05-21T05:57:34.763Z,120.50
2019-05-21T06:00:03.420Z,114.97
2019-05-21T06:02:31.857Z,115.33
2019-05-21T06:05:00.284Z,110.63
2019-05-21T06:07:28.720Z,110.57
2019-05-21T06:09:57.145Z,112.70
2019-05-21T06:12:25.625Z,111.63
2019-05-21T06:14:54.021Z,103.77
2019-05-21T06:17:22.460Z,99.53
2019-05-21T06:19:50.872Z,96.33
2019-05-21T06:22:19.310Z,93.20
2019-05-21T06:24:47.717Z,94.97
2019-05-21T06:27:16.158Z,93.67
2019-05-21T06:29:44.574Z,93.93
2019-05-21T06:32:13.015Z,91.00
2019-05-21T06:34:41.438Z,83.70
2019-05-21T06:37:09.871Z,91.20
2019-05-21T06:39:38.283Z,85.77
2019-05-21T06:42:06.770Z,88.30
2019-05-21T06:44:35.210Z,86.40
2019-05-21T06:47:03.620Z,86.53
2019-05-21T06:49:32.060Z,82.03
2019-05-21T06:52:00.475Z,79.03
2019-05-21T06:54:28.914Z,80.07
2019-05-21T06:56:57.342Z,83.53
2019-05-21T06:59:25.766Z,81.47
2019-05-21T07:01:54.192Z,84.87
2019-05-21T07:04:22.622Z,83.47
2019-05-21T07:06:51.038Z,79.43
2019-05-21T07:09:19.474Z,78.47
2019-05-21T07:11:47.891Z,78.87
2019-05-21T07:14:16.341Z,83.93
2019-05-21T07:16:44.824Z,86.90
2019-05-21T07:19:13.259Z,79.87
2019-05-21T07:21:41.675Z,83.40
2019-05-21T07:24:10.113Z,76.67
2019-05-21T07:26:38.534Z,76.80
2019-05-21T07:29:07.044Z,75.03
2019-05-21T07:31:35.467Z,80.40
2019-05-21T07:34:03.907Z,77.47
2019-05-21T07:36:33.967Z,76.80
2019-05-21T07:39:02.404Z,79.00
2019-05-21T07:41:30.817Z,75.20
2019-05-21T07:43:59.260Z,74.37
2019-05-21T07:46:27.670Z,80.50
2019-05-21T07:48:56.121Z,73.63
2019-05-21T07:51:24.627Z,73.77
2019-05-21T07:53:53.054Z,74.57
2019-05-21T07:56:21.470Z,75.33
2019-05-21T07:58:49.902Z,77.63
2019-05-21T08:01:18.381Z,75.80
2019-05-21T08:03:46.800Z,74.20
2019-05-21T08:06:15.322Z,67.90
2019-05-21T08:08:43.747Z,74.10
2019-05-21T08:11:12.318Z,70.23
2019-05-21T08:13:40.759Z,69.40
2019-05-21T08:16:09.238Z,75.70
2019-05-21T08:18:37.728Z,72.10
2019-05-21T08:21:06.609Z,74.50
2019-05-21T08:23:35.021Z,79.97
2019-05-21T08:26:03.462Z,74.77
2019-05-21T08:28:31.883Z,82.47
2019-05-21T08:31:02.337Z,84.30
2019-05-21T08:33:30.554Z,74.80
2019-05-21T08:35:58.978Z,75.00
2019-05-21T08:38:27.390Z,73.60
2019-05-21T08:40:55.835Z,74.37
2019-05-21T08:43:24.248Z,83.77
2019-05-21T08:45:52.759Z,77.80
2019-05-21T08:48:21.252Z,75.87
2019-05-21T08:50:49.693Z,77.87
2019-05-21T08:53:18.908Z,81.23
2019-05-21T08:55:47.365Z,76.03
2019-05-21T08:58:15.836Z,79.93
2019-05-21T09:00:44.341Z,79.07
2019-05-21T09:03:12.749Z,77.00
2019-05-21T09:05:41.193Z,74.47
2019-05-21T09:08:09.679Z,76.77
2019-05-21T09:10:41.265Z,73.70
2019-05-21T09:13:09.705Z,76.87
2019-05-21T09:15:38.124Z,75.97
2019-05-21T09:18:06.556Z,77.23
2019-05-21T09:20:35.039Z,73.60
2019-05-21T09:23:03.477Z,73.40
2019-05-21T09:25:31.894Z,84.27
2019-05-21T09:28:00.337Z,70.87
2019-05-21T09:30:28.748Z,80.57
2019-05-21T09:32:57.193Z,79.40
2019-05-21T09:35:25.611Z,74.87
2019-05-21T09:37:54.055Z,85.47
2019-05-21T09:40:23.613Z,76.30
2019-05-21T09:42:52.118Z,73.57
2019-05-21T09:45:20.684Z,75.57
2019-05-21T09:47:49.114Z,80.53
2019-05-21T09:50:17.592Z,71.93
2019-05-21T09:52:46.113Z,73.40
2019-05-21T09:55:14.753Z,75.30
2019-05-21T09:57:44.908Z,75.57
2019-05-21T10:00:34.313Z,83.70
2019-05-21T10:03:04.960Z,85.17
2019-05-21T10:05:33.441Z,78.87
2019-05-21T10:08:01.888Z,73.70
2019-05-21T10:10:30.297Z,71.67
2019-05-21T10:12:58.739Z,78.67
2019-05-21T10:15:27.149Z,78.63
2019-05-21T10:17:55.597Z,72.97
2019-05-21T10:20:24.012Z,77.00
2019-05-21T10:22:52.465Z,75.70
2019-05-21T10:25:20.872Z,71.03
2019-05-21T10:27:49.333Z,71.90
2019-05-21T10:30:17.812Z,68.90
2019-05-21T10:32:46.227Z,68.60
2019-05-21T10:35:14.743Z,68.50
2019-05-21T10:37:54.355Z,70.30
2019-05-21T10:40:13.688Z,67.97
2019-05-21T10:42:42.133Z,67.07
2019-05-21T10:45:10.688Z,63.93
2019-05-21T10:47:39.093Z,65.53
2019-05-21T10:50:07.826Z,62.67
2019-05-21T10:52:36.306Z,59.47
2019-05-21T10:55:06.385Z,60.27
2019-05-21T10:57:34.818Z,56.50
2019-05-21T11:00:06.595Z,58.20
2019-05-21T11:02:36.721Z,56.90
2019-05-21T11:05:14.417Z,60.47
2019-05-21T11:07:42.889Z,57.63
2019-05-21T11:10:12.287Z,60.03
2019-05-21T11:12:40.760Z,59.23
2019-05-21T11:15:09.272Z,56.83
2019-05-21T11:17:50.027Z,58.57
2019-05-21T11:20:08.097Z,57.60
2019-05-21T11:22:36.513Z,60.83
2019-05-21T11:25:07.291Z,59.00
2019-05-21T11:27:35.700Z,62.57
2019-05-21T11:30:06.667Z,60.87
2019-05-21T11:32:35.145Z,63.13
2019-05-21T11:35:05.127Z,61.10
2019-05-21T11:37:33.539Z,62.00
2019-05-21T11:40:02.048Z,57.40
2019-05-21T11:42:30.464Z,62.80
2019-05-21T11:44:58.935Z,61.80
2019-05-21T11:47:27.419Z,67.40
2019-05-21T11:49:55.989Z,58.80
2019-05-21T11:52:24.421Z,60.50
2019-05-21T11:54:55.800Z,66.97
2019-05-21T11:57:22.995Z,67.70
2019-05-21T11:59:51.428Z,65.20
2019-05-21T12:02:19.932Z,66.27
2019-05-21T12:04:48.357Z,70.70
2019-05-21T12:07:16.791Z,61.73
2019-05-21T12:09:45.200Z,63.07
2019-05-21T12:12:13.644Z,60.23
2019-05-21T12:14:42.062Z,59.30
2019-05-21T12:17:10.509Z,59.70
2019-05-21T12:19:38.927Z,61.03
2019-05-21T12:22:07.431Z,59.10
2019-05-21T12:24:35.845Z,62.27
2019-05-21T12:27:04.353Z,59.60
2019-05-21T12:29:34.302Z,59.03
2019-05-21T12:32:03.064Z,58.57
2019-05-21T12:34:31.478Z,61.23
2019-05-21T12:36:59.920Z,65.67
2019-05-21T12:39:28.704Z,64.77
2019-05-21T12:41:57.143Z,62.63
2019-05-21T12:44:25.575Z,65.03
2019-05-21T12:46:54.015Z,68.33
2019-05-21T12:49:22.443Z,67.23
2019-05-21T12:51:50.872Z,62.37
2019-05-21T12:54:19.283Z,63.20
2019-05-21T12:56:47.720Z,60.97
2019-05-21T12:59:16.143Z,60.40
2019-05-21T13:01:44.556Z,71.20
2019-05-21T13:04:13.075Z,69.47
2019-05-21T13:06:41.507Z,62.33
2019-05-21T13:09:10.001Z,71.50
2019-05-21T13:11:38.474Z,81.30
2019-05-21T13:14:06.985Z,66.70
2019-05-21T13:16:35.393Z,69.73
2019-05-21T13:19:03.914Z,69.80
2019-05-21T13:21:32.336Z,70.90
2019-05-21T13:24:00.767Z,67.73
2019-05-21T13:26:29.239Z,71.37
2019-05-21T13:28:57.752Z,72.80
2019-05-21T13:31:26.170Z,74.07
2019-05-21T13:33:54.612Z,70.53
2019-05-21T13:36:23.022Z,69.10
2019-05-21T13:38:51.463Z,67.40
2019-05-21T13:41:20.211Z,69.23
2019-05-21T13:43:48.647Z,70.20
2019-05-21T13:46:17.124Z,69.33
2019-05-21T13:48:47.122Z,65.23
2019-05-21T13:51:15.761Z,63.87
2019-05-21T13:53:44.203Z,65.97
2019-05-21T13:56:12.651Z,68.70
2019-05-21T13:58:41.079Z,64.77
2019-05-21T14:01:10.703Z,73.50
2019-05-21T14:03:39.210Z,73.00
2019-05-21T14:06:07.634Z,74.10
2019-05-21T14:08:36.330Z,71.47
2019-05-21T14:11:04.888Z,71.00
2019-05-21T14:13:33.335Z,70.40
2019-05-21T14:16:01.747Z,69.57
2019-05-21T14:18:30.177Z,66.77
2019-05-21T14:20:58.595Z,66.43
2019-05-21T14:23:27.046Z,63.83
2019-05-21T14:25:55.461Z,66.93
2019-05-21T14:28:23.884Z,79.83
2019-05-21T14:30:52.328Z,65.87
2019-05-21T14:33:20.808Z,67.80
2019-05-21T14:35:49.311Z,61.03
2019-05-21T14:38:17.726Z,59.30
2019-05-21T14:40:46.183Z,56.03
2019-05-21T14:43:14.583Z,59.37
2019-05-21T14:45:43.094Z,59.73
2019-05-21T14:48:11.504Z,57.70
2019-05-21T14:50:39.953Z,57.03
2019-05-21T14:53:08.496Z,56.83
2019-05-21T14:55:36.995Z,58.60
2019-05-21T14:58:05.411Z,58.37
2019-05-21T15:00:35.577Z,56.63
2019-05-21T15:03:03.975Z,61.67
2019-05-21T15:05:33.557Z,59.40
2019-05-21T15:08:02.339Z,56.00
2019-05-21T15:10:45.671Z,56.93
2019-05-21T15:13:05.508Z,51.87
2019-05-21T15:15:31.353Z,51.03
2019-05-21T15:17:59.781Z,53.40
2019-05-21T15:20:30.053Z,54.70
2019-05-21T15:22:58.510Z,54.33
2019-05-21T15:25:27.019Z,53.77
2019-05-21T15:27:55.447Z,53.40
2019-05-21T15:30:23.926Z,53.00
2019-05-21T15:32:52.369Z,55.37
2019-05-21T15:35:20.821Z,54.23
2019-05-21T15:37:49.226Z,52.87
2019-05-21T15:40:18.105Z,55.27
2019-05-21T15:42:51.950Z,58.20
2019-05-21T15:45:17.100Z,54.10
2019-05-21T15:47:45.539Z,53.20
2019-05-21T15:50:14.284Z,53.27
2019-05-21T15:52:42.726Z,51.13
2019-05-21T15:55:11.290Z,50.27
2019-05-21T15:57:39.733Z,52.80
2019-05-21T16:00:14.433Z,52.13
2019-05-21T16:02:42.934Z,48.43
2019-05-21T16:05:11.647Z,47.00
2019-05-21T16:07:40.131Z,48.53
2019-05-21T16:10:08.680Z,46.97
2019-05-21T16:12:37.128Z,44.70
2019-05-21T16:15:07.152Z,47.93
2019-05-21T16:17:35.659Z,47.17
2019-05-21T16:20:06.715Z,47.93
2019-05-21T16:22:35.150Z,50.60
2019-05-21T16:25:05.206Z,49.00
2019-05-21T16:27:33.649Z,49.73
2019-05-21T16:30:02.062Z,49.07
2019-05-21T16:32:30.497Z,49.60
2019-05-21T16:34:59.038Z,50.07
2019-05-21T16:37:27.590Z,52.70
2019-05-21T16:39:56.000Z,51.97
2019-05-21T16:42:24.444Z,52.47
2019-05-21T16:44:52.921Z,54.80
2019-05-21T16:47:21.360Z,57.70
2019-05-21T16:49:49.768Z,58.00
2019-05-21T16:52:18.207Z,59.00
2019-05-21T16:54:46.620Z,52.43
2019-05-21T16:57:15.062Z,53.00
2019-05-21T16:59:43.472Z,53.20
2019-05-21T17:02:11.915Z,53.77
2019-05-21T17:04:40.326Z,52.30
2019-05-21T17:07:08.772Z,53.60
2019-05-21T17:09:37.249Z,52.53
2019-05-21T17:12:05.758Z,53.37
2019-05-21T17:14:34.237Z,55.43
2019-05-21T17:17:02.676Z,57.10
2019-05-21T17:19:31.087Z,56.90
2019-05-21T17:21:59.500Z,55.87
2019-05-21T17:24:27.999Z,58.77
2019-05-21T17:26:56.537Z,59.73
2019-05-21T17:29:25.113Z,60.30
2019-05-21T17:31:53.532Z,57.37
2019-05-21T17:34:21.969Z,66.03
2019-05-21T17:36:50.388Z,64.87
2019-05-21T17:39:18.829Z,64.67
2019-05-21T17:41:47.244Z,65.87
2019-05-21T17:44:15.677Z,66.70
2019-05-21T17:46:44.092Z,64.37
2019-05-21T17:49:12.528Z,61.83
2019-05-21T17:51:40.943Z,58.40
2019-05-21T17:54:09.531Z,56.53
2019-05-21T17:56:37.945Z,58.30
2019-05-21T17:59:06.385Z,57.77
2019-05-21T18:01:34.945Z,58.83
2019-05-21T18:04:03.658Z,61.83
2019-05-21T18:06:32.737Z,66.70
2019-05-21T18:09:01.301Z,60.20
2019-05-21T18:11:29.908Z,52.97
2019-05-21T18:13:58.622Z,50.90
2019-05-21T18:16:27.280Z,50.83
2019-05-21T18:18:56.387Z,51.20
2019-05-21T18:21:24.969Z,51.10
2019-05-21T18:23:53.410Z,52.00
2019-05-21T18:26:21.830Z,53.00
2019-05-21T18:28:50.265Z,50.70
2019-05-21T18:31:18.746Z,55.60
2019-05-21T18:33:47.256Z,47.77
2019-05-21T18:36:15.737Z,46.07
2019-05-21T18:38:44.246Z,44.37
2019-05-21T18:41:12.663Z,41.83
2019-05-21T18:43:41.075Z,40.30
2019-05-21T18:46:09.507Z,39.27
2019-05-21T18:48:37.910Z,41.70
2019-05-21T18:51:06.414Z,39.17
2019-05-21T18:53:34.826Z,40.13
2019-05-21T18:56:03.261Z,38.77
2019-05-21T18:58:31.732Z,40.07
2019-05-21T19:01:00.168Z,39.60
2019-05-21T19:03:28.573Z,39.70
2019-05-21T19:05:57.011Z,42.10
2019-05-21T19:08:25.417Z,40.13
2019-05-21T19:10:53.922Z,39.10
2019-05-21T19:13:22.329Z,41.43
2019-05-21T19:15:50.766Z,39.97
2019-05-21T19:18:19.175Z,43.53
2019-05-21T19:20:49.948Z,42.70
2019-05-21T19:23:17.813Z,42.27
2019-05-21T19:25:46.251Z,41.10
2019-05-21T19:28:14.658Z,42.30
2019-05-21T19:30:43.098Z,43.53
2019-05-21T19:33:11.501Z,42.93
2019-05-21T19:35:39.936Z,45.17
2019-05-21T19:38:08.349Z,45.30
2019-05-21T19:40:36.779Z,46.60
2019-05-21T19:43:05.185Z,44.80
2019-05-21T19:45:33.628Z,44.83
2019-05-21T19:48:02.124Z,44.97
2019-05-21T19:50:30.566Z,51.90
2019-05-21T19:52:58.975Z,45.53
2019-05-21T19:55:29.026Z,46.10
2019-05-21T19:57:57.452Z,46.70
2019-05-21T20:00:27.503Z,48.13
2019-05-21T20:02:56.012Z,46.37
2019-05-21T20:05:24.593Z,47.30
2019-05-21T20:07:53.099Z,46.40
2019-05-21T20:10:21.517Z,47.97
2019-05-21T20:12:50.045Z,50.40
2019-05-21T20:15:19.021Z,48.00
2019-05-21T20:17:50.793Z,49.80
2019-05-21T20:20:19.974Z,49.27
2019-05-21T20:22:48.471Z,51.23
2019-05-21T20:25:17.715Z,47.67
2019-05-21T20:27:46.256Z,46.30
2019-05-21T20:30:16.427Z,46.67
2019-05-21T20:32:46.616Z,47.87
2019-05-21T20:35:16.808Z,47.60
2019-05-21T20:37:46.949Z,46.20
2019-05-21T20:40:16.771Z,49.97
2019-05-21T20:42:46.448Z,46.20
2019-05-21T20:45:16.571Z,43.00
2019-05-21T20:47:45.348Z,44.90
2019-05-21T20:50:15.829Z,43.40
2019-05-21T20:52:44.635Z,44.40
2019-05-21T20:55:14.258Z,42.73
2019-05-21T20:57:42.695Z,44.67
2019-05-21T21:00:13.180Z,44.73
2019-05-21T21:02:43.934Z,46.90
2019-05-21T21:05:13.241Z,46.40
2019-05-21T21:07:42.319Z,43.90
2019-05-21T21:10:12.078Z,40.10
2019-05-21T21:12:41.479Z,42.13
2019-05-21T21:15:11.593Z,42.47
2019-05-21T21:17:40.027Z,41.17
2019-05-21T21:20:08.575Z,44.90
2019-05-21T21:22:37.010Z,42.17
2019-05-21T21:25:07.295Z,43.50
2019-05-21T21:27:36.738Z,43.00
2019-05-21T21:30:09.830Z,43.77
2019-05-21T21:32:39.331Z,42.80
2019-05-21T21:35:09.829Z,42.30
2019-05-21T21:37:38.235Z,42.50
2019-05-21T21:40:08.756Z,44.73
2019-05-21T21:42:37.504Z,43.93
2019-05-21T21:45:07.481Z,42.23
2019-05-21T21:47:35.890Z,42.70
2019-05-21T21:50:06.633Z,47.30
2019-05-21T21:52:35.414Z,43.37
2019-05-21T21:55:05.758Z,44.03
2019-05-21T21:57:34.346Z,51.30
2019-05-21T22:00:22.628Z,47.47
2019-05-21T22:02:51.041Z,46.10
2019-05-21T22:05:19.921Z,73.47
2019-05-21T22:07:48.401Z,63.43
2019-05-21T22:10:17.116Z,55.10
2019-05-21T22:12:45.897Z,60.07
2019-05-21T22:15:14.477Z,93.10
2019-05-21T22:17:42.889Z,90.17
2019-05-21T22:20:11.799Z,88.63
2019-05-21T22:22:40.389Z,57.10
2019-05-21T22:25:09.194Z,55.83
2019-05-21T22:27:37.786Z,47.77
2019-05-21T22:30:07.224Z,55.10
2019-05-21T22:32:35.697Z,50.33
2019-05-21T22:35:05.786Z,67.97
2019-05-21T22:37:34.671Z,51.20
2019-05-21T22:40:03.929Z,49.70
2019-05-21T22:42:32.908Z,47.53
2019-05-21T22:45:07.793Z,48.37
2019-05-21T22:47:31.991Z,49.30
2019-05-21T22:50:00.451Z,52.63
2019-05-21T22:52:28.899Z,47.77
2019-05-21T22:54:57.329Z,55.90
2019-05-21T22:57:26.435Z,60.50
2019-05-21T22:59:54.931Z,53.90
2019-05-21T23:02:25.003Z,53.10
2019-05-21T23:04:53.753Z,48.67
2019-05-21T23:07:22.189Z,50.80
2019-05-21T23:09:50.602Z,54.37
2019-05-21T23:12:19.277Z,51.43
2019-05-21T23:14:48.122Z,52.50
2019-05-21T23:17:16.737Z,53.00
2019-05-21T23:19:45.885Z,50.07
2019-05-21T23:22:16.348Z,51.20
2019-05-21T23:24:44.934Z,51.47
2019-05-21T23:27:15.077Z,50.73
2019-05-21T23:29:43.983Z,49.17
2019-05-21T23:32:12.975Z,51.30
2019-05-21T23:34:41.821Z,53.23
2019-05-21T23:37:12.139Z,50.10
2019-05-21T23:39:40.583Z,49.23
2019-05-21T23:42:10.523Z,46.30
2019-05-21T23:44:39.003Z,46.47
2019-05-21T23:47:09.448Z,47.10
2019-05-21T23:49:37.859Z,50.43
2019-05-21T23:52:06.865Z,46.50
2019-05-21T23:54:35.288Z,48.97
2019-05-21T23:57:04.110Z,51.20
2019-05-21T23:59:32.981Z,61.77
